sensor_id;sensor_type;location;lat;lon;timestamp;pressure;altitude;pressure_sealevel;temperature;humidity
43155;BME280;34212;51.018;13.586;2022-12-24T00:02:59;96561.53;;;10.10;98.61
43155;BME280;34212;51.018;13.586;2022-12-24T00:08:01;96579.56;;;10.08;98.14
43155;BME280;34212;51.018;13.586;2022-12-24T00:13:02;96593.09;;;10.07;98.64
43155;BME280;34212;51.018;13.586;2022-12-24T00:18:04;96599.25;;;10.07;98.35
43155;BME280;34212;51.018;13.586;2022-12-24T00:23:05;96598.41;;;10.07;98.42
43155;BME280;34212;51.018;13.586;2022-12-24T00:28:07;96610.72;;;10.08;98.78
43155;BME280;34212;51.018;13.586;2022-12-24T00:33:09;96599.88;;;10.09;97.92
43155;BME280;34212;51.018;13.586;2022-12-24T00:38:11;96610.72;;;10.08;98.20
43155;BME280;34212;51.018;13.586;2022-12-24T00:43:12;96603.75;;;10.07;98.40
43155;BME280;34212;51.018;13.586;2022-12-24T00:48:14;96610.91;;;10.00;96.91
43155;BME280;34212;51.018;13.586;2022-12-24T00:53:17;96607.44;;;9.86;96.18
43155;BME280;34212;51.018;13.586;2022-12-24T00:58:19;96614.38;;;9.74;96.91
43155;BME280;34212;51.018;13.586;2022-12-24T01:03:20;96610.69;;;9.75;97.22
43155;BME280;34212;51.018;13.586;2022-12-24T01:08:22;96613.97;;;9.77;96.64
43155;BME280;34212;51.018;13.586;2022-12-24T01:13:23;96628.50;;;9.81;96.93
43155;BME280;34212;51.018;13.586;2022-12-24T01:18:25;96628.09;;;9.84;96.78
43155;BME280;34212;51.018;13.586;2022-12-24T01:23:27;96647.38;;;9.86;96.44
43155;BME280;34212;51.018;13.586;2022-12-24T01:28:30;96644.31;;;9.89;96.39
43155;BME280;34212;51.018;13.586;2022-12-24T01:33:32;96664.16;;;9.93;96.37
43155;BME280;34212;51.018;13.586;2022-12-24T01:38:33;96675.44;;;9.95;96.61
43155;BME280;34212;51.018;13.586;2022-12-24T01:43:35;96678.94;;;9.89;96.35
43155;BME280;34212;51.018;13.586;2022-12-24T01:53:42;96698.16;;;9.78;96.42
43155;BME280;34212;51.018;13.586;2022-12-24T01:58:48;96690.16;;;9.71;96.71
43155;BME280;34212;51.018;13.586;2022-12-24T02:03:52;96688.69;;;9.68;97.06
43155;BME280;34212;51.018;13.586;2022-12-24T02:08:54;96702.41;;;9.65;97.03
43155;BME280;34212;51.018;13.586;2022-12-24T02:13:58;96706.13;;;9.64;96.46
43155;BME280;34212;51.018;13.586;2022-12-24T02:19:09;96700.16;;;9.62;96.44
43155;BME280;34212;51.018;13.586;2022-12-24T02:24:36;96708.13;;;9.62;96.86
43155;BME280;34212;51.018;13.586;2022-12-24T02:35:11;96731.50;;;9.60;96.88
43155;BME280;34212;51.018;13.586;2022-12-24T02:40:25;96736.81;;;9.60;96.90
43155;BME280;34212;51.018;13.586;2022-12-24T02:45:31;96736.81;;;9.60;97.60
43155;BME280;34212;51.018;13.586;2022-12-24T02:50:34;96751.59;;;9.63;96.91
43155;BME280;34212;51.018;13.586;2022-12-24T02:55:50;96753.41;;;9.62;97.15
43155;BME280;34212;51.018;13.586;2022-12-24T03:06:45;96774.09;;;9.60;97.33
43155;BME280;34212;51.018;13.586;2022-12-24T03:12:03;96774.28;;;9.59;97.40
43155;BME280;34212;51.018;13.586;2022-12-24T03:17:06;96789.44;;;9.58;97.33
43155;BME280;34212;51.018;13.586;2022-12-24T03:22:09;96792.31;;;9.57;97.78
43155;BME280;34212;51.018;13.586;2022-12-24T03:27:13;96786.13;;;9.56;97.55
43155;BME280;34212;51.018;13.586;2022-12-24T03:32:22;96785.13;;;9.57;96.99
43155;BME280;34212;51.018;13.586;2022-12-24T03:37:24;96796.59;;;9.58;97.87
43155;BME280;34212;51.018;13.586;2022-12-24T03:42:27;96800.06;;;9.58;97.36
43155;BME280;34212;51.018;13.586;2022-12-24T03:47:30;96796.59;;;9.58;96.97
43155;BME280;34212;51.018;13.586;2022-12-24T03:52:31;96809.09;;;9.57;97.16
43155;BME280;34212;51.018;13.586;2022-12-24T03:57:33;96823.22;;;9.58;96.89
43155;BME280;34212;51.018;13.586;2022-12-24T04:02:34;96815.22;;;9.58;96.80
43155;BME280;34212;51.018;13.586;2022-12-24T04:07:36;96841.63;;;9.59;97.17
43155;BME280;34212;51.018;13.586;2022-12-24T04:12:37;96836.31;;;9.59;96.83
43155;BME280;34212;51.018;13.586;2022-12-24T04:17:39;96838.78;;;9.61;96.49
43155;BME280;34212;51.018;13.586;2022-12-24T04:22:40;96836.13;;;9.61;96.62
43155;BME280;34212;51.018;13.586;2022-12-24T04:27:42;96848.22;;;9.63;96.44
43155;BME280;34212;51.018;13.586;2022-12-24T04:32:43;96861.31;;;9.65;96.48
43155;BME280;34212;51.018;13.586;2022-12-24T04:37:45;96877.31;;;9.65;96.44
43155;BME280;34212;51.018;13.586;2022-12-24T04:42:46;96881.38;;;9.61;95.92
43155;BME280;34212;51.018;13.586;2022-12-24T04:47:48;96883.63;;;9.57;95.81
43155;BME280;34212;51.018;13.586;2022-12-24T04:52:49;96889.09;;;9.49;96.24
43155;BME280;34212;51.018;13.586;2022-12-24T04:57:51;96897.66;;;9.44;96.06
43155;BME280;34212;51.018;13.586;2022-12-24T05:02:53;96918.53;;;9.41;96.36
43155;BME280;34212;51.018;13.586;2022-12-24T05:07:55;96919.53;;;9.40;95.78
43155;BME280;34212;51.018;13.586;2022-12-24T05:12:57;96918.53;;;9.41;96.15
43155;BME280;34212;51.018;13.586;2022-12-24T05:17:58;96930.00;;;9.41;95.49
43155;BME280;34212;51.018;13.586;2022-12-24T05:23:00;96948.38;;;9.36;95.36
43155;BME280;34212;51.018;13.586;2022-12-24T05:28:20;96944.63;;;9.31;95.95
43155;BME280;34212;51.018;13.586;2022-12-24T05:33:21;96960.97;;;9.28;95.84
43155;BME280;34212;51.018;13.586;2022-12-24T05:38:23;96962.56;;;9.22;95.68
43155;BME280;34212;51.018;13.586;2022-12-24T05:43:25;96965.22;;;9.22;95.75
43155;BME280;34212;51.018;13.586;2022-12-24T05:48:27;96965.06;;;9.23;95.82
43155;BME280;34212;51.018;13.586;2022-12-24T05:53:28;96984.06;;;9.20;95.10
43155;BME280;34212;51.018;13.586;2022-12-24T05:58:30;96985.47;;;9.16;95.34
43155;BME280;34212;51.018;13.586;2022-12-24T06:03:32;96997.09;;;9.15;95.43
43155;BME280;34212;51.018;13.586;2022-12-24T06:08:34;96997.47;;;9.12;95.37
43155;BME280;34212;51.018;13.586;2022-12-24T06:13:38;97018.13;;;9.10;95.41
43155;BME280;34212;51.018;13.586;2022-12-24T06:18:39;97028.50;;;9.05;95.49
43155;BME280;34212;51.018;13.586;2022-12-24T06:23:43;97035.22;;;9.01;94.88
43155;BME280;34212;51.018;13.586;2022-12-24T06:28:46;97044.56;;;8.97;94.62
43155;BME280;34212;51.018;13.586;2022-12-24T06:33:49;97056.59;;;8.93;94.26
43155;BME280;34212;51.018;13.586;2022-12-24T06:38:52;97047.00;;;8.92;94.95
43155;BME280;34212;51.018;13.586;2022-12-24T06:43:54;97066.22;;;8.94;94.93
43155;BME280;34212;51.018;13.586;2022-12-24T06:48:55;97072.03;;;8.97;94.39
43155;BME280;34212;51.018;13.586;2022-12-24T06:53:57;97081.44;;;9.00;93.93
43155;BME280;34212;51.018;13.586;2022-12-24T06:58:58;97092.06;;;9.00;93.72
43155;BME280;34212;51.018;13.586;2022-12-24T07:04:05;97097.38;;;9.00;93.29
43155;BME280;34212;51.018;13.586;2022-12-24T07:09:11;97101.06;;;8.99;92.86
43155;BME280;34212;51.018;13.586;2022-12-24T07:14:13;97104.47;;;8.93;92.70
43155;BME280;34212;51.018;13.586;2022-12-24T07:19:15;97125.03;;;8.84;91.82
43155;BME280;34212;51.018;13.586;2022-12-24T07:24:16;97133.75;;;8.78;91.49
43155;BME280;34212;51.018;13.586;2022-12-24T07:29:18;97131.44;;;8.75;91.72
43155;BME280;34212;51.018;13.586;2022-12-24T07:34:19;97141.25;;;8.74;92.45
43155;BME280;34212;51.018;13.586;2022-12-24T07:39:20;97152.53;;;8.76;92.10
43155;BME280;34212;51.018;13.586;2022-12-24T07:44:22;97166.75;;;8.84;91.84
43155;BME280;34212;51.018;13.586;2022-12-24T07:49:23;97181.97;;;8.90;91.79
43155;BME280;34212;51.018;13.586;2022-12-24T07:54:25;97175.09;;;8.95;92.29
43155;BME280;34212;51.018;13.586;2022-12-24T07:59:26;97196.66;;;9.00;92.46
43155;BME280;34212;51.018;13.586;2022-12-24T08:04:30;97192.41;;;9.06;92.47
43155;BME280;34212;51.018;13.586;2022-12-24T08:09:34;97210.03;;;9.07;92.67
43155;BME280;34212;51.018;13.586;2022-12-24T08:14:36;97211.00;;;9.06;91.81
43155;BME280;34212;51.018;13.586;2022-12-24T08:19:37;97217.28;;;8.98;92.77
43155;BME280;34212;51.018;13.586;2022-12-24T08:24:39;97234.41;;;8.96;92.27
43155;BME280;34212;51.018;13.586;2022-12-24T08:29:40;97226.72;;;9.01;93.26
43155;BME280;34212;51.018;13.586;2022-12-24T08:34:42;97232.13;;;9.08;93.16
43155;BME280;34212;51.018;13.586;2022-12-24T08:39:43;97249.81;;;9.15;93.03
43155;BME280;34212;51.018;13.586;2022-12-24T08:44:45;97239.25;;;9.22;92.92
43155;BME280;34212;51.018;13.586;2022-12-24T08:49:46;97256.31;;;9.28;92.69
43155;BME280;34212;51.018;13.586;2022-12-24T08:54:48;97275.59;;;9.30;92.41
43155;BME280;34212;51.018;13.586;2022-12-24T08:59:49;97280.47;;;9.26;91.88
43155;BME280;34212;51.018;13.586;2022-12-24T09:04:51;97298.88;;;9.28;92.35
43155;BME280;34212;51.018;13.586;2022-12-24T09:09:52;97294.13;;;9.38;92.56
43155;BME280;34212;51.018;13.586;2022-12-24T09:14:54;97301.63;;;9.49;91.46
43155;BME280;34212;51.018;13.586;2022-12-24T09:20:04;97318.34;;;9.58;91.05
43155;BME280;34212;51.018;13.586;2022-12-24T09:25:07;97318.78;;;9.61;90.91
43155;BME280;34212;51.018;13.586;2022-12-24T09:30:11;97331.44;;;9.59;90.54
43155;BME280;34212;51.018;13.586;2022-12-24T09:35:13;97339.56;;;9.66;89.85
43155;BME280;34212;51.018;13.586;2022-12-24T09:40:24;97341.47;;;9.72;89.65
43155;BME280;34212;51.018;13.586;2022-12-24T09:45:32;97351.28;;;9.71;89.14
43155;BME280;34212;51.018;13.586;2022-12-24T09:50:49;97347.16;;;9.69;89.07
43155;BME280;34212;51.018;13.586;2022-12-24T09:55:57;97363.16;;;9.69;88.87
43155;BME280;34212;51.018;13.586;2022-12-24T10:01:00;97371.94;;;9.69;88.17
43155;BME280;34212;51.018;13.586;2022-12-24T10:21:58;97389.84;;;9.76;86.73
43155;BME280;34212;51.018;13.586;2022-12-24T10:27:11;97391.41;;;9.85;86.48
43155;BME280;34212;51.018;13.586;2022-12-24T10:32:26;97399.47;;;9.91;86.84
43155;BME280;34212;51.018;13.586;2022-12-24T10:37:29;97405.25;;;9.95;86.99
43155;BME280;34212;51.018;13.586;2022-12-24T10:42:38;97403.41;;;9.95;87.59
43155;BME280;34212;51.018;13.586;2022-12-24T10:47:56;97410.22;;;9.98;86.86
43155;BME280;34212;51.018;13.586;2022-12-24T10:53:11;97423.44;;;10.06;86.74
43155;BME280;34212;51.018;13.586;2022-12-24T10:58:17;97432.94;;;10.15;86.36
43155;BME280;34212;51.018;13.586;2022-12-24T11:03:39;97431.59;;;10.20;86.09
43155;BME280;34212;51.018;13.586;2022-12-24T11:08:44;97454.38;;;10.22;86.52
43155;BME280;34212;51.018;13.586;2022-12-24T11:13:53;97442.88;;;10.22;86.19
43155;BME280;34212;51.018;13.586;2022-12-24T11:18:58;97451.88;;;10.21;86.07
43155;BME280;34212;51.018;13.586;2022-12-24T11:24:14;97453.28;;;10.02;86.63
43155;BME280;34212;51.018;13.586;2022-12-24T11:29:26;97462.13;;;9.73;87.94
43155;BME280;34212;51.018;13.586;2022-12-24T11:34:31;97473.50;;;9.66;88.81
43155;BME280;34212;51.018;13.586;2022-12-24T11:39:41;97468.78;;;9.68;89.03
43155;BME280;34212;51.018;13.586;2022-12-24T11:44:48;97477.53;;;9.77;89.74
43155;BME280;34212;51.018;13.586;2022-12-24T11:49:50;97475.06;;;9.90;89.51
43155;BME280;34212;51.018;13.586;2022-12-24T11:55:02;97482.44;;;10.03;89.46
43155;BME280;34212;51.018;13.586;2022-12-24T12:00:16;97484.34;;;10.09;88.70
43155;BME280;34212;51.018;13.586;2022-12-24T12:05:21;97494.91;;;10.17;88.94
43155;BME280;34212;51.018;13.586;2022-12-24T12:10:29;97498.66;;;10.23;88.77
43155;BME280;34212;51.018;13.586;2022-12-24T12:15:34;97490.13;;;10.28;88.18
43155;BME280;34212;51.018;13.586;2022-12-24T12:20:43;97502.91;;;10.32;87.69
43155;BME280;34212;51.018;13.586;2022-12-24T12:25:54;97508.16;;;10.40;87.90
43155;BME280;34212;51.018;13.586;2022-12-24T12:31:21;97500.06;;;10.34;87.35
43155;BME280;34212;51.018;13.586;2022-12-24T12:36:31;97494.34;;;10.07;88.47
43155;BME280;34212;51.018;13.586;2022-12-24T12:57:47;97515.13;;;10.56;89.25
43155;BME280;34212;51.018;13.586;2022-12-24T13:18:47;97514.69;;;10.38;89.34
43155;BME280;34212;51.018;13.586;2022-12-24T13:24:03;97506.47;;;10.39;89.75
43155;BME280;34212;51.018;13.586;2022-12-24T13:34:32;97522.56;;;10.46;90.43
43155;BME280;34212;51.018;13.586;2022-12-24T13:45:37;97519.88;;;10.61;90.27
43155;BME280;34212;51.018;13.586;2022-12-24T13:55:47;97521.72;;;10.60;89.29
43155;BME280;34212;51.018;13.586;2022-12-24T14:00:56;97532.69;;;10.51;89.36
43155;BME280;34212;51.018;13.586;2022-12-24T14:06:01;97532.16;;;10.40;89.21
43155;BME280;34212;51.018;13.586;2022-12-24T14:11:07;97545.19;;;10.35;89.33
43155;BME280;34212;51.018;13.586;2022-12-24T14:16:13;97547.81;;;10.21;88.93
43155;BME280;34212;51.018;13.586;2022-12-24T14:21:17;97548.00;;;10.04;89.53
43155;BME280;34212;51.018;13.586;2022-12-24T14:26:24;97566.94;;;9.94;89.06
43155;BME280;34212;51.018;13.586;2022-12-24T14:31:28;97565.81;;;9.89;89.44
43155;BME280;34212;51.018;13.586;2022-12-24T14:36:29;97570.22;;;9.82;89.57
43155;BME280;34212;51.018;13.586;2022-12-24T14:41:34;97588.41;;;9.78;89.43
43155;BME280;34212;51.018;13.586;2022-12-24T14:46:42;97588.19;;;9.80;89.82
43155;BME280;34212;51.018;13.586;2022-12-24T14:57:27;97602.09;;;9.90;90.50
43155;BME280;34212;51.018;13.586;2022-12-24T15:07:38;97613.28;;;9.62;90.40
43155;BME280;34212;51.018;13.586;2022-12-24T15:12:47;97617.22;;;9.52;90.69
43155;BME280;34212;51.018;13.586;2022-12-24T15:17:49;97627.09;;;9.43;90.53
43155;BME280;34212;51.018;13.586;2022-12-24T15:22:52;97630.09;;;9.40;91.03
43155;BME280;34212;51.018;13.586;2022-12-24T15:27:55;97632.97;;;9.38;90.61
43155;BME280;34212;51.018;13.586;2022-12-24T15:32:57;97639.34;;;9.29;91.04
43155;BME280;34212;51.018;13.586;2022-12-24T15:37:59;97652.88;;;9.19;90.42
43155;BME280;34212;51.018;13.586;2022-12-24T15:43:00;97655.91;;;9.08;90.67
43155;BME280;34212;51.018;13.586;2022-12-24T15:48:06;97671.88;;;9.00;90.54
43155;BME280;34212;51.018;13.586;2022-12-24T15:53:12;97671.06;;;8.99;90.11
43155;BME280;34212;51.018;13.586;2022-12-24T15:58:26;97683.03;;;9.04;90.61
43155;BME280;34212;51.018;13.586;2022-12-24T16:03:27;97687.03;;;8.99;89.73
43155;BME280;34212;51.018;13.586;2022-12-24T16:08:33;97685.69;;;9.04;90.01
43155;BME280;34212;51.018;13.586;2022-12-24T16:13:39;97698.31;;;9.10;89.93
43155;BME280;34212;51.018;13.586;2022-12-24T16:23:47;97712.47;;;8.94;88.37
43155;BME280;34212;51.018;13.586;2022-12-24T16:28:50;97716.53;;;8.82;88.34
43155;BME280;34212;51.018;13.586;2022-12-24T16:33:52;97719.88;;;8.67;88.46
43155;BME280;34212;51.018;13.586;2022-12-24T16:38:55;97725.38;;;8.58;88.59
43155;BME280;34212;51.018;13.586;2022-12-24T16:44:15;97725.25;;;8.51;88.86
43155;BME280;34212;51.018;13.586;2022-12-24T16:49:17;97726.41;;;8.48;88.76
43155;BME280;34212;51.018;13.586;2022-12-24T16:54:19;97728.91;;;8.42;88.12
43155;BME280;34212;51.018;13.586;2022-12-24T16:59:21;97729.06;;;8.40;89.35
43155;BME280;34212;51.018;13.586;2022-12-24T17:04:23;97730.19;;;8.38;89.32
43155;BME280;34212;51.018;13.586;2022-12-24T17:09:24;97742.00;;;8.35;88.44
43155;BME280;34212;51.018;13.586;2022-12-24T17:14:26;97749.97;;;8.35;88.95
43155;BME280;34212;51.018;13.586;2022-12-24T17:19:27;97758.59;;;8.37;89.20
43155;BME280;34212;51.018;13.586;2022-12-24T17:24:29;97762.06;;;8.38;89.19
43155;BME280;34212;51.018;13.586;2022-12-24T17:29:31;97758.28;;;8.40;89.28
43155;BME280;34212;51.018;13.586;2022-12-24T17:34:32;97759.13;;;8.41;89.94
43155;BME280;34212;51.018;13.586;2022-12-24T17:39:33;97752.81;;;8.42;90.20
43155;BME280;34212;51.018;13.586;2022-12-24T17:44:35;97761.63;;;8.42;90.02
43155;BME280;34212;51.018;13.586;2022-12-24T17:49:36;97764.44;;;8.41;89.79
43155;BME280;34212;51.018;13.586;2022-12-24T17:54:38;97769.75;;;8.41;90.46
43155;BME280;34212;51.018;13.586;2022-12-24T17:59:39;97778.56;;;8.41;89.89
43155;BME280;34212;51.018;13.586;2022-12-24T18:04:40;97782.22;;;8.40;89.67
43155;BME280;34212;51.018;13.586;2022-12-24T18:09:42;97784.03;;;8.40;90.76
43155;BME280;34212;51.018;13.586;2022-12-24T18:14:44;97798.44;;;8.37;89.72
43155;BME280;34212;51.018;13.586;2022-12-24T18:19:45;97802.25;;;8.34;89.62
43155;BME280;34212;51.018;13.586;2022-12-24T18:24:47;97799.09;;;8.31;89.79
43155;BME280;34212;51.018;13.586;2022-12-24T18:29:48;97805.59;;;8.28;89.65
43155;BME280;34212;51.018;13.586;2022-12-24T18:34:50;97809.44;;;8.26;90.09
43155;BME280;34212;51.018;13.586;2022-12-24T18:39:51;97816.88;;;8.22;89.97
43155;BME280;34212;51.018;13.586;2022-12-24T18:44:53;97819.22;;;8.17;89.71
43155;BME280;34212;51.018;13.586;2022-12-24T18:49:54;97825.00;;;8.13;89.30
43155;BME280;34212;51.018;13.586;2022-12-24T18:54:56;97828.84;;;8.10;89.97
43155;BME280;34212;51.018;13.586;2022-12-24T18:59:57;97836.13;;;8.08;89.44
43155;BME280;34212;51.018;13.586;2022-12-24T19:04:59;97829.63;;;8.02;89.33
43155;BME280;34212;51.018;13.586;2022-12-24T19:10:00;97845.06;;;7.99;88.46
43155;BME280;34212;51.018;13.586;2022-12-24T19:15:02;97849.38;;;7.92;89.28
43155;BME280;34212;51.018;13.586;2022-12-24T19:20:03;97856.81;;;7.88;89.02
43155;BME280;34212;51.018;13.586;2022-12-24T19:25:05;97858.00;;;7.85;89.29
43155;BME280;34212;51.018;13.586;2022-12-24T19:30:08;97862.63;;;7.83;89.10
43155;BME280;34212;51.018;13.586;2022-12-24T19:35:10;97858.44;;;7.81;89.32
43155;BME280;34212;51.018;13.586;2022-12-24T19:40:11;97870.91;;;7.80;90.31
43155;BME280;34212;51.018;13.586;2022-12-24T19:45:13;97876.22;;;7.80;89.52
43155;BME280;34212;51.018;13.586;2022-12-24T19:50:15;97879.88;;;7.79;90.00
43155;BME280;34212;51.018;13.586;2022-12-24T19:55:16;97878.88;;;7.80;90.91
43155;BME280;34212;51.018;13.586;2022-12-24T20:00:18;97889.16;;;7.83;90.08
43155;BME280;34212;51.018;13.586;2022-12-24T20:05:20;97891.81;;;7.83;89.77
43155;BME280;34212;51.018;13.586;2022-12-24T20:10:21;97903.28;;;7.84;90.35
43155;BME280;34212;51.018;13.586;2022-12-24T20:15:23;97897.44;;;7.80;89.58
43155;BME280;34212;51.018;13.586;2022-12-24T20:20:25;97910.03;;;7.78;90.04
43155;BME280;34212;51.018;13.586;2022-12-24T20:30:56;97907.06;;;7.73;89.98
43155;BME280;34212;51.018;13.586;2022-12-24T20:36:01;97912.19;;;7.75;90.15
43155;BME280;34212;51.018;13.586;2022-12-24T20:41:03;97923.81;;;7.74;90.27
43155;BME280;34212;51.018;13.586;2022-12-24T20:46:10;97919.84;;;7.78;90.23
43155;BME280;34212;51.018;13.586;2022-12-24T20:51:13;97922.34;;;7.79;90.79
43155;BME280;34212;51.018;13.586;2022-12-24T20:56:25;97930.31;;;7.79;91.07
43155;BME280;34212;51.018;13.586;2022-12-24T21:01:55;97933.28;;;7.76;90.70
43155;BME280;34212;51.018;13.586;2022-12-24T21:06:58;97929.94;;;7.74;89.94
43155;BME280;34212;51.018;13.586;2022-12-24T21:12:00;97931.91;;;7.72;90.33
43155;BME280;34212;51.018;13.586;2022-12-24T21:17:20;97927.78;;;7.70;90.45
43155;BME280;34212;51.018;13.586;2022-12-24T21:22:22;97928.59;;;7.70;90.58
43155;BME280;34212;51.018;13.586;2022-12-24T21:27:28;97933.91;;;7.70;90.51
43155;BME280;34212;51.018;13.586;2022-12-24T21:32:34;97933.91;;;7.70;90.93
43155;BME280;34212;51.018;13.586;2022-12-24T21:37:36;97929.25;;;7.72;90.40
43155;BME280;34212;51.018;13.586;2022-12-24T21:42:38;97936.25;;;7.73;90.97
43155;BME280;34212;51.018;13.586;2022-12-24T21:47:41;97945.88;;;7.74;90.60
43155;BME280;34212;51.018;13.586;2022-12-24T21:52:46;97948.38;;;7.76;90.89
43155;BME280;34212;51.018;13.586;2022-12-24T21:57:52;97954.53;;;7.76;90.86
43155;BME280;34212;51.018;13.586;2022-12-24T22:03:00;97964.78;;;7.71;90.73
43155;BME280;34212;51.018;13.586;2022-12-24T22:08:03;97970.88;;;7.63;91.72
43155;BME280;34212;51.018;13.586;2022-12-24T22:13:27;97959.09;;;7.66;91.21
43155;BME280;34212;51.018;13.586;2022-12-24T22:19:16;97970.56;;;7.67;91.41
43155;BME280;34212;51.018;13.586;2022-12-24T22:24:26;97989.28;;;7.65;91.29
43155;BME280;34212;51.018;13.586;2022-12-24T22:29:27;97985.13;;;7.62;91.16
43155;BME280;34212;51.018;13.586;2022-12-24T22:34:29;97985.44;;;7.59;91.39
43155;BME280;34212;51.018;13.586;2022-12-24T22:39:31;97994.22;;;7.60;91.20
43155;BME280;34212;51.018;13.586;2022-12-24T22:44:33;98012.97;;;7.58;90.83
43155;BME280;34212;51.018;13.586;2022-12-24T22:49:34;98011.47;;;7.56;90.59
43155;BME280;34212;51.018;13.586;2022-12-24T22:54:36;98022.75;;;7.58;90.41
43155;BME280;34212;51.018;13.586;2022-12-24T22:59:38;98036.03;;;7.58;90.28
43155;BME280;34212;51.018;13.586;2022-12-24T23:04:40;98033.00;;;7.53;89.26
43155;BME280;34212;51.018;13.586;2022-12-24T23:09:41;98046.59;;;7.50;89.54
43155;BME280;34212;51.018;13.586;2022-12-24T23:14:42;98034.84;;;7.52;90.59
43155;BME280;34212;51.018;13.586;2022-12-24T23:19:57;98051.44;;;7.54;90.62
43155;BME280;34212;51.018;13.586;2022-12-24T23:25:00;98054.75;;;7.56;90.63
43155;BME280;34212;51.018;13.586;2022-12-24T23:30:02;98051.97;;;7.58;90.44
43155;BME280;34212;51.018;13.586;2022-12-24T23:35:03;98062.28;;;7.61;91.20
43155;BME280;34212;51.018;13.586;2022-12-24T23:40:05;98047.38;;;7.68;90.77
43155;BME280;34212;51.018;13.586;2022-12-24T23:45:07;98062.06;;;7.80;91.53
43155;BME280;34212;51.018;13.586;2022-12-24T23:50:09;98068.09;;;7.91;91.44
43155;BME280;34212;51.018;13.586;2022-12-24T23:55:10;98070.13;;;7.97;91.80
